createdAt,value
2022-10-13T00:01:41.106Z,13.00
2022-10-13T00:04:30.471Z,13.00
2022-10-13T00:07:19.800Z,13.00
2022-10-13T00:10:10.034Z,13.00
2022-10-13T00:13:00.744Z,13.00
2022-10-13T00:15:50.548Z,13.00
2022-10-13T00:18:40.363Z,13.00
2022-10-13T00:21:29.943Z,13.00
2022-10-13T00:24:19.264Z,13.10
2022-10-13T00:27:08.596Z,13.10
2022-10-13T00:30:00.329Z,13.20
2022-10-13T00:32:49.720Z,13.20
2022-10-13T00:35:43.210Z,13.20
2022-10-13T00:38:33.499Z,13.20
2022-10-13T00:41:23.235Z,13.20
2022-10-13T00:45:12.714Z,13.10
2022-10-13T00:48:04.958Z,13.10
2022-10-13T00:50:55.353Z,13.10
2022-10-13T00:53:47.532Z,13.10
2022-10-13T00:56:40.030Z,13.20
2022-10-13T00:59:30.226Z,13.20
2022-10-13T01:02:19.846Z,13.20
2022-10-13T01:05:13.678Z,13.20
2022-10-13T01:08:03.778Z,13.20
2022-10-13T01:11:07.118Z,13.20
2022-10-13T01:14:10.411Z,13.30
2022-10-13T01:17:07.644Z,13.30
2022-10-13T01:20:46.258Z,13.30
2022-10-13T01:24:25.518Z,13.30
2022-10-13T01:28:02.151Z,13.30
2022-10-13T01:30:59.989Z,13.40
2022-10-13T01:33:58.428Z,13.40
2022-10-13T01:37:02.911Z,13.40
2022-10-13T01:39:58.960Z,13.50
2022-10-13T01:42:56.423Z,13.50
2022-10-13T01:45:54.215Z,13.50
2022-10-13T01:48:46.037Z,13.50
2022-10-13T01:51:36.514Z,13.50
2022-10-13T01:54:25.918Z,13.50
2022-10-13T01:57:32.588Z,13.50
2022-10-13T02:00:24.073Z,13.50
2022-10-13T02:03:23.931Z,13.50
2022-10-13T02:06:22.802Z,13.50
2022-10-13T02:09:20.621Z,13.50
2022-10-13T02:12:20.018Z,13.50
2022-10-13T02:15:13.671Z,13.50
2022-10-13T02:18:03.921Z,13.50
2022-10-13T02:20:55.689Z,13.50
2022-10-13T02:23:45.332Z,13.50
2022-10-13T02:26:36.615Z,13.50
2022-10-13T02:29:28.619Z,13.50
2022-10-13T02:32:18.078Z,13.50
2022-10-13T02:35:08.846Z,13.50
2022-10-13T02:37:59.737Z,13.50
2022-10-13T02:40:49.184Z,13.50
2022-10-13T02:43:38.791Z,13.50
2022-10-13T02:46:28.260Z,13.50
2022-10-13T02:49:17.634Z,13.50
2022-10-13T02:52:06.932Z,13.50
2022-10-13T02:54:57.675Z,13.50
2022-10-13T02:57:47.227Z,13.60
2022-10-13T03:00:38.462Z,13.60
2022-10-13T03:03:27.941Z,13.60
2022-10-13T03:06:17.282Z,13.60
2022-10-13T03:09:06.704Z,13.70
2022-10-13T03:11:57.630Z,13.60
2022-10-13T03:14:46.904Z,13.70
2022-10-13T03:17:36.333Z,13.70
2022-10-13T03:20:25.700Z,13.70
2022-10-13T03:23:14.992Z,13.70
2022-10-13T03:26:04.866Z,13.70
2022-10-13T03:28:55.573Z,13.70
2022-10-13T03:31:45.331Z,13.70
2022-10-13T03:34:34.628Z,13.70
2022-10-13T03:37:23.943Z,13.70
2022-10-13T03:40:13.968Z,13.70
2022-10-13T03:43:03.278Z,13.70
2022-10-13T03:46:01.566Z,13.70
2022-10-13T03:48:50.943Z,13.70
2022-10-13T03:51:40.576Z,13.70
2022-10-13T03:54:29.902Z,13.70
2022-10-13T03:57:19.888Z,13.70
2022-10-13T04:00:11.118Z,13.70
2022-10-13T04:03:22.100Z,13.70
2022-10-13T04:06:11.620Z,13.70
2022-10-13T04:09:01.058Z,13.80
2022-10-13T04:11:52.373Z,13.80
2022-10-13T04:14:41.793Z,13.80
2022-10-13T04:17:31.245Z,13.80
2022-10-13T04:20:22.001Z,13.80
2022-10-13T04:23:11.335Z,13.90
2022-10-13T04:26:07.899Z,13.90
2022-10-13T04:28:57.685Z,13.90
2022-10-13T04:31:46.954Z,13.90
2022-10-13T04:34:36.509Z,14.00
2022-10-13T04:37:27.346Z,14.00
2022-10-13T04:40:16.878Z,14.10
2022-10-13T04:43:06.528Z,14.10
2022-10-13T04:46:01.687Z,14.20
2022-10-13T04:48:51.605Z,14.20
2022-10-13T04:51:44.171Z,14.30
2022-10-13T04:54:34.965Z,14.30
2022-10-13T04:57:24.254Z,14.30
2022-10-13T05:00:15.047Z,14.40
2022-10-13T05:03:04.376Z,14.40
2022-10-13T05:05:54.435Z,14.30
2022-10-13T05:08:44.144Z,14.30
2022-10-13T05:11:37.918Z,14.30
2022-10-13T05:14:27.366Z,14.20
2022-10-13T05:17:16.739Z,14.20
2022-10-13T05:20:06.853Z,14.20
2022-10-13T05:22:56.539Z,14.10
2022-10-13T05:25:45.886Z,14.10
2022-10-13T05:28:38.958Z,14.00
2022-10-13T05:31:30.685Z,14.00
2022-10-13T05:34:21.676Z,13.90
2022-10-13T05:37:11.028Z,13.90
2022-10-13T05:40:00.398Z,13.80
2022-10-13T05:42:51.147Z,13.80
2022-10-13T05:45:43.373Z,13.80
2022-10-13T05:48:33.558Z,13.70
2022-10-13T05:51:27.416Z,13.70
2022-10-13T05:54:23.047Z,13.60
2022-10-13T05:57:15.652Z,13.60
2022-10-13T06:00:09.720Z,13.60
2022-10-13T06:03:09.346Z,13.60
2022-10-13T06:05:58.803Z,13.60
2022-10-13T06:08:48.327Z,13.60
2022-10-13T06:11:37.905Z,13.60
2022-10-13T06:14:27.435Z,13.60
2022-10-13T06:17:16.804Z,13.50
2022-10-13T06:20:11.289Z,13.60
2022-10-13T06:23:00.846Z,13.70
2022-10-13T06:25:50.336Z,13.80
2022-10-13T06:28:39.885Z,14.00
2022-10-13T06:31:29.533Z,14.40
2022-10-13T06:34:18.825Z,14.70
2022-10-13T06:37:09.781Z,15.20
2022-10-13T06:39:59.164Z,15.60
2022-10-13T06:42:52.071Z,16.00
2022-10-13T06:45:44.791Z,16.40
2022-10-13T06:48:34.180Z,16.70
2022-10-13T06:51:23.541Z,16.90
2022-10-13T06:54:14.228Z,17.10
2022-10-13T06:57:03.576Z,17.20
2022-10-13T06:59:53.142Z,17.30
2022-10-13T07:02:42.492Z,17.30
2022-10-13T07:05:32.632Z,17.50
2022-10-13T07:08:22.336Z,17.60
2022-10-13T07:11:16.685Z,17.80
2022-10-13T07:14:10.998Z,17.90
2022-10-13T07:17:00.699Z,18.10
2022-10-13T07:19:50.158Z,18.20
2022-10-13T07:22:39.571Z,18.40
2022-10-13T07:25:29.749Z,18.50
2022-10-13T07:28:20.823Z,18.70
2022-10-13T07:31:13.618Z,19.00
2022-10-13T07:34:04.829Z,19.40
2022-10-13T07:36:54.321Z,19.90
2022-10-13T07:39:43.651Z,20.40
2022-10-13T07:42:33.606Z,20.90
2022-10-13T07:45:24.369Z,21.20
2022-10-13T07:48:13.754Z,21.50
2022-10-13T07:51:07.297Z,21.80
2022-10-13T07:53:56.619Z,22.20
2022-10-13T07:56:46.008Z,22.70
2022-10-13T07:59:35.480Z,23.20
2022-10-13T08:02:26.310Z,23.80
2022-10-13T08:05:15.849Z,24.30
2022-10-13T08:08:05.169Z,24.90
2022-10-13T08:10:54.996Z,25.40
2022-10-13T08:13:49.913Z,25.80
2022-10-13T08:16:48.620Z,26.30
2022-10-13T08:19:42.044Z,26.80
2022-10-13T08:22:31.339Z,27.20
2022-10-13T08:25:20.667Z,27.60
2022-10-13T08:28:19.970Z,28.00
2022-10-13T08:31:09.686Z,28.40
2022-10-13T08:33:59.297Z,28.90
2022-10-13T08:36:52.968Z,29.20
2022-10-13T08:39:42.985Z,29.50
2022-10-13T08:42:32.362Z,29.80
2022-10-13T08:45:40.991Z,30.00
2022-10-13T08:48:36.264Z,30.20
2022-10-13T08:51:25.616Z,30.40
2022-10-13T08:54:19.177Z,30.70
2022-10-13T08:57:10.505Z,31.00
2022-10-13T09:00:00.097Z,31.30
2022-10-13T09:02:52.842Z,31.70
2022-10-13T09:05:56.724Z,31.90
2022-10-13T09:08:54.319Z,32.20
2022-10-13T09:11:47.555Z,32.40
2022-10-13T09:14:39.083Z,32.60
2022-10-13T09:17:30.015Z,32.70
2022-10-13T09:20:23.432Z,32.80
2022-10-13T09:23:21.092Z,32.90
2022-10-13T09:26:18.553Z,32.90
2022-10-13T09:29:15.552Z,33.10
2022-10-13T09:32:21.874Z,33.30
2022-10-13T09:35:23.507Z,33.50
2022-10-13T09:38:16.924Z,33.60
2022-10-13T09:41:15.851Z,33.50
2022-10-13T09:44:15.457Z,33.50
2022-10-13T09:47:06.153Z,33.50
2022-10-13T09:50:18.245Z,33.30
2022-10-13T09:53:22.613Z,33.20
2022-10-13T09:56:20.893Z,33.00
2022-10-13T09:59:20.953Z,32.80
2022-10-13T10:02:24.989Z,32.60
2022-10-13T10:05:25.581Z,32.40
2022-10-13T10:08:33.266Z,32.20
2022-10-13T10:11:29.888Z,31.90
2022-10-13T10:14:26.936Z,31.60
2022-10-13T10:17:24.982Z,31.50
2022-10-13T10:20:34.808Z,31.20
2022-10-13T10:23:40.812Z,31.00
2022-10-13T10:26:44.948Z,30.90
2022-10-13T10:29:49.477Z,30.70
2022-10-13T10:32:45.604Z,30.70
2022-10-13T10:35:46.154Z,30.70
2022-10-13T10:38:45.997Z,30.70
2022-10-13T10:41:42.906Z,30.80
2022-10-13T10:44:36.924Z,30.70
2022-10-13T10:47:33.607Z,30.60
2022-10-13T10:50:24.276Z,30.40
2022-10-13T10:53:27.689Z,30.20
2022-10-13T10:56:25.871Z,30.10
2022-10-13T10:59:32.621Z,29.90
2022-10-13T11:02:45.231Z,29.70
2022-10-13T11:06:00.575Z,29.60
2022-10-13T11:08:51.606Z,29.40
2022-10-13T11:11:43.500Z,29.10
2022-10-13T11:14:36.613Z,28.90
2022-10-13T11:17:32.006Z,28.70
2022-10-13T11:20:59.363Z,28.50
2022-10-13T11:23:50.859Z,28.30
2022-10-13T11:26:45.041Z,28.20
2022-10-13T11:29:56.548Z,28.10
2022-10-13T11:32:57.959Z,27.90
2022-10-13T11:35:47.331Z,27.80
2022-10-13T11:38:40.073Z,27.70
2022-10-13T11:41:37.897Z,27.60
2022-10-13T11:44:34.133Z,27.40
2022-10-13T11:47:55.494Z,27.30
2022-10-13T11:50:53.456Z,27.10
2022-10-13T11:53:52.201Z,26.90
2022-10-13T11:56:49.544Z,26.80
2022-10-13T11:59:38.909Z,26.60
2022-10-13T12:02:29.368Z,26.40
2022-10-13T12:05:26.485Z,26.20
2022-10-13T12:08:16.968Z,26.00
2022-10-13T12:11:10.313Z,25.80
2022-10-13T12:14:01.317Z,25.60
2022-10-13T12:16:57.713Z,25.50
2022-10-13T12:19:48.267Z,25.40
2022-10-13T12:22:48.557Z,25.30
2022-10-13T12:25:37.953Z,25.20
2022-10-13T12:28:30.830Z,25.20
2022-10-13T12:31:24.023Z,25.20
2022-10-13T12:34:22.361Z,25.10
2022-10-13T12:37:22.958Z,25.10
2022-10-13T12:40:17.018Z,25.00
2022-10-13T12:43:06.612Z,25.00
2022-10-13T12:45:56.021Z,24.90
2022-10-13T12:48:45.426Z,24.80
2022-10-13T12:51:35.582Z,24.70
2022-10-13T12:54:29.267Z,24.70
2022-10-13T12:57:24.060Z,24.60
2022-10-13T13:00:23.738Z,24.60
2022-10-13T13:03:27.965Z,24.60
2022-10-13T13:06:33.437Z,24.50
2022-10-13T13:09:34.332Z,24.50
2022-10-13T13:12:28.810Z,24.40
2022-10-13T13:15:37.752Z,24.40
2022-10-13T13:18:39.727Z,24.20
2022-10-13T13:21:29.049Z,24.20
2022-10-13T13:24:28.847Z,24.10
2022-10-13T13:27:39.711Z,24.00
2022-10-13T13:30:29.997Z,23.90
2022-10-13T13:33:19.311Z,23.90
2022-10-13T13:36:17.565Z,23.80
2022-10-13T13:39:18.289Z,23.80
2022-10-13T13:42:12.464Z,23.70
2022-10-13T13:45:03.854Z,23.60
2022-10-13T13:47:56.754Z,23.60
2022-10-13T13:50:49.100Z,23.60
2022-10-13T13:53:38.866Z,23.50
2022-10-13T13:56:28.280Z,23.50
2022-10-13T13:59:17.636Z,23.40
2022-10-13T14:02:14.164Z,23.40
2022-10-13T14:05:03.975Z,23.40
2022-10-13T14:07:57.735Z,23.40
2022-10-13T14:10:47.280Z,23.40
2022-10-13T14:13:40.450Z,23.30
2022-10-13T14:16:30.306Z,23.20
2022-10-13T14:19:21.785Z,23.20
2022-10-13T14:22:11.413Z,23.20
2022-10-13T14:25:00.789Z,23.10
2022-10-13T14:27:50.265Z,23.00
2022-10-13T14:30:42.063Z,22.90
2022-10-13T14:33:31.493Z,22.80
2022-10-13T14:36:22.988Z,22.70
2022-10-13T14:39:12.635Z,22.50
2022-10-13T14:42:02.065Z,22.40
2022-10-13T14:44:51.563Z,22.40
2022-10-13T14:47:41.202Z,22.20
2022-10-13T14:50:30.555Z,22.20
2022-10-13T14:53:21.269Z,22.10
2022-10-13T14:56:24.134Z,21.90
2022-10-13T14:59:14.343Z,21.90
2022-10-13T15:02:04.377Z,21.80
2022-10-13T15:04:53.759Z,21.70
2022-10-13T15:07:43.033Z,21.60
2022-10-13T15:10:33.750Z,21.50
2022-10-13T15:13:23.657Z,21.50
2022-10-13T15:16:18.485Z,21.40
2022-10-13T15:19:07.921Z,21.40
2022-10-13T15:21:57.247Z,21.30
2022-10-13T15:24:46.746Z,21.20
2022-10-13T15:27:41.893Z,21.20
2022-10-13T15:30:34.986Z,21.10
2022-10-13T15:33:31.265Z,21.00
2022-10-13T15:36:22.218Z,21.00
2022-10-13T15:39:12.624Z,20.90
2022-10-13T15:42:01.987Z,20.80
2022-10-13T15:45:10.497Z,20.70
2022-10-13T15:48:00.858Z,20.70
2022-10-13T15:50:50.441Z,20.60
2022-10-13T15:53:39.769Z,20.50
2022-10-13T15:56:29.290Z,20.40
2022-10-13T15:59:18.841Z,20.30
2022-10-13T16:02:11.016Z,20.20
2022-10-13T16:05:04.897Z,20.10
2022-10-13T16:07:54.384Z,20.00
2022-10-13T16:10:44.655Z,19.90
2022-10-13T16:13:37.953Z,19.90
2022-10-13T16:16:28.120Z,19.80
2022-10-13T16:19:18.865Z,19.70
2022-10-13T16:22:08.226Z,19.60
2022-10-13T16:24:57.732Z,19.60
2022-10-13T16:27:47.137Z,19.50
2022-10-13T16:30:37.959Z,19.50
2022-10-13T16:33:27.353Z,19.40
2022-10-13T16:36:20.366Z,19.30
2022-10-13T16:39:13.351Z,19.20
2022-10-13T16:42:02.702Z,19.20
2022-10-13T16:44:52.044Z,19.10
2022-10-13T16:47:41.484Z,19.10
2022-10-13T16:50:30.793Z,19.00
2022-10-13T16:53:21.585Z,18.90
2022-10-13T16:56:11.207Z,18.90
2022-10-13T16:59:03.186Z,18.80
2022-10-13T17:01:52.529Z,18.70
2022-10-13T17:04:41.871Z,18.70
2022-10-13T17:07:31.206Z,18.60
2022-10-13T17:10:22.181Z,18.60
2022-10-13T17:13:11.515Z,18.50
2022-10-13T17:16:01.163Z,18.40
2022-10-13T17:18:50.473Z,18.40
2022-10-13T17:21:39.950Z,18.40
2022-10-13T17:24:30.968Z,18.30
2022-10-13T17:27:21.927Z,18.20
2022-10-13T17:30:12.950Z,18.10
2022-10-13T17:33:04.500Z,18.00
2022-10-13T17:35:54.251Z,18.00
2022-10-13T17:38:44.974Z,17.90
2022-10-13T17:41:34.443Z,17.90
2022-10-13T17:44:25.316Z,17.80
2022-10-13T17:47:14.725Z,17.80
2022-10-13T17:50:04.182Z,17.70
2022-10-13T17:52:53.854Z,17.70
2022-10-13T17:55:43.282Z,17.60
2022-10-13T17:58:37.163Z,17.60
2022-10-13T18:01:31.640Z,17.60
2022-10-13T18:04:22.386Z,17.60
2022-10-13T18:07:11.797Z,17.50
2022-10-13T18:10:01.117Z,17.50
2022-10-13T18:12:50.478Z,17.50
2022-10-13T18:15:40.885Z,17.50
2022-10-13T18:18:31.690Z,17.50
2022-10-13T18:21:24.136Z,17.40
2022-10-13T18:24:14.315Z,17.40
2022-10-13T18:27:03.652Z,17.30
2022-10-13T18:29:53.293Z,17.30
2022-10-13T18:32:44.195Z,17.30
2022-10-13T18:35:35.983Z,17.30
2022-10-13T18:38:25.492Z,17.30
2022-10-13T18:41:16.112Z,17.20
2022-10-13T18:44:06.568Z,17.20
2022-10-13T18:46:56.950Z,17.20
2022-10-13T18:49:46.256Z,17.20
2022-10-13T18:52:37.007Z,17.10
2022-10-13T18:55:26.549Z,17.00
2022-10-13T18:58:15.939Z,17.00
2022-10-13T19:01:07.516Z,17.00
2022-10-13T19:03:57.674Z,16.90
2022-10-13T19:06:47.034Z,16.90
2022-10-13T19:09:37.972Z,16.80
2022-10-13T19:12:27.340Z,16.80
2022-10-13T19:15:19.159Z,16.70
2022-10-13T19:18:08.707Z,16.70
2022-10-13T19:20:58.262Z,16.60
2022-10-13T19:23:47.813Z,16.50
2022-10-13T19:26:44.845Z,16.50
2022-10-13T19:29:34.282Z,16.50
2022-10-13T19:32:24.148Z,16.40
2022-10-13T19:35:14.126Z,16.40
2022-10-13T19:38:03.456Z,16.30
2022-10-13T19:40:53.481Z,16.30
2022-10-13T19:43:44.283Z,16.20
2022-10-13T19:46:36.098Z,16.20
2022-10-13T19:49:26.572Z,16.10
2022-10-13T19:52:15.983Z,16.10
2022-10-13T19:55:06.176Z,16.00
2022-10-13T19:57:55.525Z,15.90
2022-10-13T20:00:47.683Z,15.90
2022-10-13T20:03:37.228Z,15.90
2022-10-13T20:06:26.633Z,15.80
2022-10-13T20:09:16.317Z,15.80
2022-10-13T20:12:07.735Z,15.70
2022-10-13T20:15:03.029Z,15.70
2022-10-13T20:17:53.797Z,15.60
2022-10-13T20:20:43.427Z,15.60
2022-10-13T20:23:33.265Z,15.60
2022-10-13T20:26:23.023Z,15.60
2022-10-13T20:29:12.530Z,15.50
2022-10-13T20:32:02.018Z,15.60
2022-10-13T20:34:53.615Z,15.60
2022-10-13T20:37:43.003Z,15.50
2022-10-13T20:40:33.034Z,15.60
2022-10-13T20:43:25.799Z,15.60
2022-10-13T20:46:16.234Z,15.60
2022-10-13T20:49:11.072Z,15.70
2022-10-13T20:52:03.100Z,15.70
2022-10-13T20:54:52.474Z,15.80
2022-10-13T20:57:42.736Z,15.90
2022-10-13T21:00:32.047Z,15.90
2022-10-13T21:03:22.680Z,16.00
2022-10-13T21:06:14.375Z,16.10
2022-10-13T21:09:05.839Z,16.10
2022-10-13T21:11:55.159Z,16.20
2022-10-13T21:14:46.035Z,16.20
2022-10-13T21:17:36.876Z,16.30
2022-10-13T21:20:28.767Z,16.30
2022-10-13T21:23:18.106Z,16.40
2022-10-13T21:26:10.413Z,16.40
2022-10-13T21:29:00.505Z,16.40
2022-10-13T21:31:49.969Z,16.40
2022-10-13T21:34:39.351Z,16.40
2022-10-13T21:37:28.643Z,16.40
2022-10-13T21:40:18.369Z,16.40
2022-10-13T21:43:09.057Z,16.50
2022-10-13T21:45:58.392Z,16.50
2022-10-13T21:48:49.175Z,16.50
2022-10-13T21:51:40.591Z,16.60
2022-10-13T21:54:30.015Z,16.60
2022-10-13T21:57:20.187Z,16.60
2022-10-13T22:00:13.353Z,16.60
2022-10-13T22:03:02.720Z,16.70
2022-10-13T22:05:52.111Z,16.70
2022-10-13T22:08:43.896Z,16.70
2022-10-13T22:11:45.462Z,16.70
2022-10-13T22:14:34.913Z,16.70
2022-10-13T22:17:25.817Z,16.70
2022-10-13T22:20:15.335Z,16.70
2022-10-13T22:23:05.503Z,16.70
2022-10-13T22:25:55.412Z,16.60
2022-10-13T22:28:45.147Z,16.70
2022-10-13T22:31:34.777Z,16.60
2022-10-13T22:34:32.616Z,16.60
2022-10-13T22:37:23.020Z,16.60
2022-10-13T22:40:13.513Z,16.50
2022-10-13T22:43:03.099Z,16.50
2022-10-13T22:45:53.387Z,16.40
2022-10-13T22:48:43.321Z,16.30
2022-10-13T22:51:37.305Z,16.20
2022-10-13T22:54:26.841Z,16.20
2022-10-13T22:57:18.498Z,16.10
2022-10-13T23:00:10.736Z,16.00
2022-10-13T23:03:04.127Z,16.00
2022-10-13T23:05:53.609Z,15.90
2022-10-13T23:08:44.518Z,15.80
2022-10-13T23:11:34.085Z,15.80
2022-10-13T23:14:23.808Z,15.70
2022-10-13T23:17:13.232Z,15.70
2022-10-13T23:20:03.081Z,15.60
2022-10-13T23:22:52.491Z,15.60
2022-10-13T23:25:43.310Z,15.50
2022-10-13T23:28:33.620Z,15.50
2022-10-13T23:31:23.607Z,15.50
2022-10-13T23:34:13.040Z,15.50
2022-10-13T23:37:02.470Z,15.50
2022-10-13T23:39:51.956Z,15.50
2022-10-13T23:42:42.758Z,15.40
2022-10-13T23:45:32.191Z,15.50
2022-10-13T23:48:21.575Z,15.50
2022-10-13T23:51:13.760Z,15.50
2022-10-13T23:54:03.156Z,15.50
2022-10-13T23:56:52.609Z,15.50
2022-10-13T23:59:43.419Z,15.50
